sensor_id;sensor_type;location;lat;lon;timestamp;pressure;altitude;pressure_sealevel;temperature
70050;BMP180;57391;51.306;22.680;2023-12-29T00:01:34;99486.80;;;5.50
70050;BMP180;57391;51.306;22.680;2023-12-29T00:03:36;99487.40;;;5.50
70050;BMP180;57391;51.306;22.680;2023-12-29T00:05:38;99483.60;;;5.50
70050;BMP180;57391;51.306;22.680;2023-12-29T00:07:39;99484.60;;;5.40
70050;BMP180;57391;51.306;22.680;2023-12-29T00:09:41;99470.40;;;5.40
70050;BMP180;57391;51.306;22.680;2023-12-29T00:11:43;99468.40;;;5.40
70050;BMP180;57391;51.306;22.680;2023-12-29T00:13:45;99481.40;;;5.40
70050;BMP180;57391;51.306;22.680;2023-12-29T00:15:54;99481.00;;;5.40
70050;BMP180;57391;51.306;22.680;2023-12-29T00:17:56;99485.40;;;5.38
70050;BMP180;57391;51.306;22.680;2023-12-29T00:19:58;99482.80;;;5.32
70050;BMP180;57391;51.306;22.680;2023-12-29T00:22:00;99486.60;;;5.30
70050;BMP180;57391;51.306;22.680;2023-12-29T00:24:05;99486.80;;;5.30
70050;BMP180;57391;51.306;22.680;2023-12-29T00:26:06;99489.00;;;5.30
70050;BMP180;57391;51.306;22.680;2023-12-29T00:28:09;99486.00;;;5.30
70050;BMP180;57391;51.306;22.680;2023-12-29T00:30:11;99483.60;;;5.30
70050;BMP180;57391;51.306;22.680;2023-12-29T00:32:13;99484.80;;;5.30
70050;BMP180;57391;51.306;22.680;2023-12-29T00:34:14;99486.40;;;5.30
70050;BMP180;57391;51.306;22.680;2023-12-29T00:36:18;99479.00;;;5.30
70050;BMP180;57391;51.306;22.680;2023-12-29T00:38:19;99483.40;;;5.30
70050;BMP180;57391;51.306;22.680;2023-12-29T00:40:21;99483.00;;;5.30
70050;BMP180;57391;51.306;22.680;2023-12-29T00:42:23;99484.00;;;5.30
70050;BMP180;57391;51.306;22.680;2023-12-29T00:44:25;99480.20;;;5.24
70050;BMP180;57391;51.306;22.680;2023-12-29T00:46:27;99482.80;;;5.22
70050;BMP180;57391;51.306;22.680;2023-12-29T00:48:29;99486.40;;;5.20
70050;BMP180;57391;51.306;22.680;2023-12-29T00:50:31;99479.80;;;5.20
70050;BMP180;57391;51.306;22.680;2023-12-29T00:52:33;99479.40;;;5.14
70050;BMP180;57391;51.306;22.680;2023-12-29T00:54:35;99480.00;;;5.10
70050;BMP180;57391;51.306;22.680;2023-12-29T00:56:37;99480.40;;;5.10
70050;BMP180;57391;51.306;22.680;2023-12-29T00:58:38;99469.20;;;5.10
70050;BMP180;57391;51.306;22.680;2023-12-29T01:00:40;99466.40;;;5.08
70050;BMP180;57391;51.306;22.680;2023-12-29T01:02:42;99462.20;;;5.00
70050;BMP180;57391;51.306;22.680;2023-12-29T01:04:44;99462.80;;;5.00
70050;BMP180;57391;51.306;22.680;2023-12-29T01:06:45;99465.40;;;5.00
70050;BMP180;57391;51.306;22.680;2023-12-29T01:08:47;99464.00;;;4.98
70050;BMP180;57391;51.306;22.680;2023-12-29T01:10:49;99464.00;;;4.90
70050;BMP180;57391;51.306;22.680;2023-12-29T01:12:50;99461.60;;;4.90
70050;BMP180;57391;51.306;22.680;2023-12-29T01:14:52;99459.60;;;4.90
70050;BMP180;57391;51.306;22.680;2023-12-29T01:16:54;99460.20;;;4.80
70050;BMP180;57391;51.306;22.680;2023-12-29T01:18:56;99460.00;;;4.80
70050;BMP180;57391;51.306;22.680;2023-12-29T01:20:57;99454.40;;;4.80
70050;BMP180;57391;51.306;22.680;2023-12-29T01:22:59;99449.20;;;4.80
70050;BMP180;57391;51.306;22.680;2023-12-29T01:25:01;99442.20;;;4.78
70050;BMP180;57391;51.306;22.680;2023-12-29T01:27:03;99441.40;;;4.76
70050;BMP180;57391;51.306;22.680;2023-12-29T01:29:06;99442.20;;;4.70
70050;BMP180;57391;51.306;22.680;2023-12-29T01:31:08;99436.80;;;4.70
70050;BMP180;57391;51.306;22.680;2023-12-29T01:33:10;99442.60;;;4.70
70050;BMP180;57391;51.306;22.680;2023-12-29T01:35:12;99442.40;;;4.70
70050;BMP180;57391;51.306;22.680;2023-12-29T01:37:13;99439.20;;;4.70
70050;BMP180;57391;51.306;22.680;2023-12-29T01:39:15;99436.20;;;4.68
70050;BMP180;57391;51.306;22.680;2023-12-29T01:41:22;99430.20;;;4.66
70050;BMP180;57391;51.306;22.680;2023-12-29T01:43:24;99442.80;;;4.68
70050;BMP180;57391;51.306;22.680;2023-12-29T01:45:26;99434.20;;;4.62
70050;BMP180;57391;51.306;22.680;2023-12-29T01:47:28;99436.60;;;4.60
70050;BMP180;57391;51.306;22.680;2023-12-29T01:49:31;99437.00;;;4.60
70050;BMP180;57391;51.306;22.680;2023-12-29T01:51:33;99439.80;;;4.60
70050;BMP180;57391;51.306;22.680;2023-12-29T01:53:35;99440.00;;;4.60
70050;BMP180;57391;51.306;22.680;2023-12-29T01:55:37;99442.60;;;4.58
70050;BMP180;57391;51.306;22.680;2023-12-29T01:57:39;99439.60;;;4.54
70050;BMP180;57391;51.306;22.680;2023-12-29T01:59:41;99439.60;;;4.50
70050;BMP180;57391;51.306;22.680;2023-12-29T02:01:44;99436.60;;;4.50
70050;BMP180;57391;51.306;22.680;2023-12-29T02:03:47;99435.20;;;4.50
70050;BMP180;57391;51.306;22.680;2023-12-29T02:05:50;99428.40;;;4.46
70050;BMP180;57391;51.306;22.680;2023-12-29T02:07:52;99429.20;;;4.44
70050;BMP180;57391;51.306;22.680;2023-12-29T02:09:55;99420.60;;;4.40
70050;BMP180;57391;51.306;22.680;2023-12-29T02:11:56;99421.60;;;4.40
70050;BMP180;57391;51.306;22.680;2023-12-29T02:14:00;99425.60;;;4.40
70050;BMP180;57391;51.306;22.680;2023-12-29T02:19:13;99426.40;;;4.40
70050;BMP180;57391;51.306;22.680;2023-12-29T02:21:15;99420.40;;;4.40
70050;BMP180;57391;51.306;22.680;2023-12-29T02:23:18;99413.60;;;4.38
70050;BMP180;57391;51.306;22.680;2023-12-29T02:25:19;99410.00;;;4.40
70050;BMP180;57391;51.306;22.680;2023-12-29T02:29:33;99404.60;;;4.40
70050;BMP180;57391;51.306;22.680;2023-12-29T02:31:39;99405.20;;;4.38
70050;BMP180;57391;51.306;22.680;2023-12-29T02:33:44;99404.20;;;4.40
70050;BMP180;57391;51.306;22.680;2023-12-29T02:35:49;99395.80;;;4.38
70050;BMP180;57391;51.306;22.680;2023-12-29T02:37:54;99394.40;;;4.40
70050;BMP180;57391;51.306;22.680;2023-12-29T02:39:58;99391.80;;;4.40
70050;BMP180;57391;51.306;22.680;2023-12-29T02:42:00;99387.20;;;4.40
70050;BMP180;57391;51.306;22.680;2023-12-29T02:44:02;99381.80;;;4.40
70050;BMP180;57391;51.306;22.680;2023-12-29T02:46:04;99383.60;;;4.40
70050;BMP180;57391;51.306;22.680;2023-12-29T02:48:06;99379.60;;;4.40
70050;BMP180;57391;51.306;22.680;2023-12-29T02:50:09;99380.80;;;4.40
70050;BMP180;57391;51.306;22.680;2023-12-29T02:52:11;99376.60;;;4.40
70050;BMP180;57391;51.306;22.680;2023-12-29T02:54:13;99375.60;;;4.40
70050;BMP180;57391;51.306;22.680;2023-12-29T02:56:15;99379.60;;;4.40
70050;BMP180;57391;51.306;22.680;2023-12-29T02:58:16;99375.40;;;4.40
70050;BMP180;57391;51.306;22.680;2023-12-29T03:00:18;99369.40;;;4.40
70050;BMP180;57391;51.306;22.680;2023-12-29T03:02:20;99367.80;;;4.40
70050;BMP180;57391;51.306;22.680;2023-12-29T03:04:22;99367.40;;;4.40
70050;BMP180;57391;51.306;22.680;2023-12-29T03:06:23;99364.40;;;4.40
70050;BMP180;57391;51.306;22.680;2023-12-29T03:08:26;99362.20;;;4.40
70050;BMP180;57391;51.306;22.680;2023-12-29T03:10:28;99366.00;;;4.40
70050;BMP180;57391;51.306;22.680;2023-12-29T03:12:29;99364.00;;;4.40
70050;BMP180;57391;51.306;22.680;2023-12-29T03:14:32;99365.80;;;4.40
70050;BMP180;57391;51.306;22.680;2023-12-29T03:16:33;99364.60;;;4.40
70050;BMP180;57391;51.306;22.680;2023-12-29T03:18:35;99357.80;;;4.40
70050;BMP180;57391;51.306;22.680;2023-12-29T03:20:41;99358.80;;;4.40
70050;BMP180;57391;51.306;22.680;2023-12-29T03:22:43;99361.60;;;4.40
70050;BMP180;57391;51.306;22.680;2023-12-29T03:24:44;99362.00;;;4.40
70050;BMP180;57391;51.306;22.680;2023-12-29T03:26:46;99355.20;;;4.40
70050;BMP180;57391;51.306;22.680;2023-12-29T03:28:48;99348.80;;;4.40
70050;BMP180;57391;51.306;22.680;2023-12-29T03:30:49;99348.00;;;4.40
70050;BMP180;57391;51.306;22.680;2023-12-29T03:32:51;99345.20;;;4.38
70050;BMP180;57391;51.306;22.680;2023-12-29T03:34:53;99341.00;;;4.34
70050;BMP180;57391;51.306;22.680;2023-12-29T03:36:55;99339.20;;;4.30
70050;BMP180;57391;51.306;22.680;2023-12-29T03:38:57;99338.40;;;4.30
70050;BMP180;57391;51.306;22.680;2023-12-29T03:40:59;99339.40;;;4.30
70050;BMP180;57391;51.306;22.680;2023-12-29T03:43:00;99340.00;;;4.30
70050;BMP180;57391;51.306;22.680;2023-12-29T03:45:02;99334.40;;;4.30
70050;BMP180;57391;51.306;22.680;2023-12-29T03:47:04;99327.80;;;4.30
70050;BMP180;57391;51.306;22.680;2023-12-29T03:49:06;99324.60;;;4.28
70050;BMP180;57391;51.306;22.680;2023-12-29T03:51:08;99331.40;;;4.30
70050;BMP180;57391;51.306;22.680;2023-12-29T03:53:09;99326.60;;;4.26
70050;BMP180;57391;51.306;22.680;2023-12-29T03:55:11;99319.80;;;4.20
70050;BMP180;57391;51.306;22.680;2023-12-29T03:57:13;99317.60;;;4.20
70050;BMP180;57391;51.306;22.680;2023-12-29T03:59:15;99311.00;;;4.20
70050;BMP180;57391;51.306;22.680;2023-12-29T04:01:17;99317.20;;;4.20
70050;BMP180;57391;51.306;22.680;2023-12-29T04:03:19;99325.20;;;4.30
70050;BMP180;57391;51.306;22.680;2023-12-29T04:05:20;99324.80;;;4.30
70050;BMP180;57391;51.306;22.680;2023-12-29T04:07:22;99324.40;;;4.30
70050;BMP180;57391;51.306;22.680;2023-12-29T04:09:24;99329.60;;;4.30
70050;BMP180;57391;51.306;22.680;2023-12-29T04:11:26;99329.00;;;4.30
70050;BMP180;57391;51.306;22.680;2023-12-29T04:13:27;99331.40;;;4.26
70050;BMP180;57391;51.306;22.680;2023-12-29T04:15:29;99327.20;;;4.28
70050;BMP180;57391;51.306;22.680;2023-12-29T04:17:31;99324.80;;;4.28
70050;BMP180;57391;51.306;22.680;2023-12-29T04:19:32;99324.00;;;4.22
70050;BMP180;57391;51.306;22.680;2023-12-29T04:21:34;99322.60;;;4.24
70050;BMP180;57391;51.306;22.680;2023-12-29T04:23:36;99323.40;;;4.22
70050;BMP180;57391;51.306;22.680;2023-12-29T04:25:38;99323.00;;;4.20
70050;BMP180;57391;51.306;22.680;2023-12-29T04:27:40;99321.80;;;4.20
70050;BMP180;57391;51.306;22.680;2023-12-29T04:29:44;99320.40;;;4.20
70050;BMP180;57391;51.306;22.680;2023-12-29T04:31:46;99322.80;;;4.20
70050;BMP180;57391;51.306;22.680;2023-12-29T04:33:48;99323.00;;;4.20
70050;BMP180;57391;51.306;22.680;2023-12-29T04:35:50;99323.20;;;4.20
70050;BMP180;57391;51.306;22.680;2023-12-29T04:37:51;99321.00;;;4.20
70050;BMP180;57391;51.306;22.680;2023-12-29T04:39:53;99321.40;;;4.20
70050;BMP180;57391;51.306;22.680;2023-12-29T04:41:55;99315.00;;;4.20
70050;BMP180;57391;51.306;22.680;2023-12-29T04:43:57;99319.20;;;4.20
70050;BMP180;57391;51.306;22.680;2023-12-29T04:45:58;99313.40;;;4.20
70050;BMP180;57391;51.306;22.680;2023-12-29T04:48:00;99310.40;;;4.22
70050;BMP180;57391;51.306;22.680;2023-12-29T04:50:03;99315.60;;;4.24
70050;BMP180;57391;51.306;22.680;2023-12-29T04:52:05;99319.40;;;4.28
70050;BMP180;57391;51.306;22.680;2023-12-29T04:54:06;99312.80;;;4.30
70050;BMP180;57391;51.306;22.680;2023-12-29T04:56:08;99311.80;;;4.30
70050;BMP180;57391;51.306;22.680;2023-12-29T04:58:10;99308.00;;;4.30
70050;BMP180;57391;51.306;22.680;2023-12-29T05:00:13;99311.80;;;4.30
70050;BMP180;57391;51.306;22.680;2023-12-29T05:02:14;99318.00;;;4.30
70050;BMP180;57391;51.306;22.680;2023-12-29T05:04:16;99313.80;;;4.30
70050;BMP180;57391;51.306;22.680;2023-12-29T05:06:18;99309.00;;;4.30
70050;BMP180;57391;51.306;22.680;2023-12-29T05:08:20;99309.40;;;4.30
70050;BMP180;57391;51.306;22.680;2023-12-29T05:10:21;99309.20;;;4.30
70050;BMP180;57391;51.306;22.680;2023-12-29T05:12:23;99305.40;;;4.40
70050;BMP180;57391;51.306;22.680;2023-12-29T05:14:25;99305.40;;;4.40
70050;BMP180;57391;51.306;22.680;2023-12-29T05:16:26;99294.40;;;4.40
70050;BMP180;57391;51.306;22.680;2023-12-29T05:18:28;99301.80;;;4.40
70050;BMP180;57391;51.306;22.680;2023-12-29T05:20:31;99302.60;;;4.40
70050;BMP180;57391;51.306;22.680;2023-12-29T05:22:33;99305.40;;;4.40
70050;BMP180;57391;51.306;22.680;2023-12-29T05:24:34;99310.00;;;4.50
70050;BMP180;57391;51.306;22.680;2023-12-29T05:26:36;99313.00;;;4.50
70050;BMP180;57391;51.306;22.680;2023-12-29T05:28:38;99309.80;;;4.50
70050;BMP180;57391;51.306;22.680;2023-12-29T05:30:40;99311.80;;;4.58
70050;BMP180;57391;51.306;22.680;2023-12-29T05:32:41;99312.20;;;4.60
70050;BMP180;57391;51.306;22.680;2023-12-29T05:34:43;99310.20;;;4.60
70050;BMP180;57391;51.306;22.680;2023-12-29T05:36:45;99311.00;;;4.60
70050;BMP180;57391;51.306;22.680;2023-12-29T05:38:47;99312.40;;;4.64
70050;BMP180;57391;51.306;22.680;2023-12-29T05:40:48;99317.40;;;4.70
70050;BMP180;57391;51.306;22.680;2023-12-29T05:42:51;99313.20;;;4.70
70050;BMP180;57391;51.306;22.680;2023-12-29T05:44:52;99312.40;;;4.70
70050;BMP180;57391;51.306;22.680;2023-12-29T05:46:54;99316.60;;;4.80
70050;BMP180;57391;51.306;22.680;2023-12-29T05:48:56;99319.00;;;4.80
70050;BMP180;57391;51.306;22.680;2023-12-29T05:50:58;99309.20;;;4.80
70050;BMP180;57391;51.306;22.680;2023-12-29T05:53:00;99310.20;;;4.80
70050;BMP180;57391;51.306;22.680;2023-12-29T05:55:02;99312.60;;;4.80
70050;BMP180;57391;51.306;22.680;2023-12-29T05:57:04;99308.00;;;4.82
70050;BMP180;57391;51.306;22.680;2023-12-29T05:59:06;99310.60;;;4.88
70050;BMP180;57391;51.306;22.680;2023-12-29T06:01:08;99312.20;;;4.90
70050;BMP180;57391;51.306;22.680;2023-12-29T06:03:10;99303.40;;;4.90
70050;BMP180;57391;51.306;22.680;2023-12-29T06:05:12;99301.60;;;4.90
70050;BMP180;57391;51.306;22.680;2023-12-29T06:07:14;99300.80;;;4.90
70050;BMP180;57391;51.306;22.680;2023-12-29T06:09:16;99301.80;;;4.90
70050;BMP180;57391;51.306;22.680;2023-12-29T06:11:18;99300.60;;;4.90
70050;BMP180;57391;51.306;22.680;2023-12-29T06:13:19;99300.00;;;4.90
70050;BMP180;57391;51.306;22.680;2023-12-29T06:15:21;99308.20;;;4.90
70050;BMP180;57391;51.306;22.680;2023-12-29T06:17:23;99307.40;;;4.90
70050;BMP180;57391;51.306;22.680;2023-12-29T06:19:24;99308.60;;;4.90
70050;BMP180;57391;51.306;22.680;2023-12-29T06:21:26;99316.80;;;4.90
70050;BMP180;57391;51.306;22.680;2023-12-29T06:23:28;99314.60;;;4.90
70050;BMP180;57391;51.306;22.680;2023-12-29T06:25:30;99306.80;;;4.88
70050;BMP180;57391;51.306;22.680;2023-12-29T06:27:32;99312.40;;;4.88
70050;BMP180;57391;51.306;22.680;2023-12-29T06:29:36;99317.20;;;4.90
70050;BMP180;57391;51.306;22.680;2023-12-29T06:31:41;99317.00;;;4.90
70050;BMP180;57391;51.306;22.680;2023-12-29T06:33:43;99315.60;;;4.90
70050;BMP180;57391;51.306;22.680;2023-12-29T06:35:45;99318.40;;;4.90
70050;BMP180;57391;51.306;22.680;2023-12-29T06:37:47;99317.00;;;4.90
70050;BMP180;57391;51.306;22.680;2023-12-29T06:39:49;99318.60;;;4.96
70050;BMP180;57391;51.306;22.680;2023-12-29T06:41:51;99315.40;;;5.00
70050;BMP180;57391;51.306;22.680;2023-12-29T06:43:53;99315.80;;;5.00
70050;BMP180;57391;51.306;22.680;2023-12-29T06:45:55;99310.00;;;5.00
70050;BMP180;57391;51.306;22.680;2023-12-29T06:47:56;99312.60;;;5.02
70050;BMP180;57391;51.306;22.680;2023-12-29T06:49:58;99309.00;;;5.10
70050;BMP180;57391;51.306;22.680;2023-12-29T06:52:01;99306.20;;;5.10
70050;BMP180;57391;51.306;22.680;2023-12-29T06:54:03;99304.20;;;5.10
70050;BMP180;57391;51.306;22.680;2023-12-29T06:56:04;99301.80;;;5.10
70050;BMP180;57391;51.306;22.680;2023-12-29T06:58:07;99310.00;;;5.12
70050;BMP180;57391;51.306;22.680;2023-12-29T07:00:09;99297.00;;;5.20
70050;BMP180;57391;51.306;22.680;2023-12-29T07:02:11;99303.80;;;5.20
70050;BMP180;57391;51.306;22.680;2023-12-29T07:04:13;99310.40;;;5.22
70050;BMP180;57391;51.306;22.680;2023-12-29T07:06:15;99300.40;;;5.30
70050;BMP180;57391;51.306;22.680;2023-12-29T07:08:17;99310.60;;;5.30
70050;BMP180;57391;51.306;22.680;2023-12-29T07:10:19;99316.00;;;5.30
70050;BMP180;57391;51.306;22.680;2023-12-29T07:12:20;99315.80;;;5.30
70050;BMP180;57391;51.306;22.680;2023-12-29T07:14:22;99307.60;;;5.30
70050;BMP180;57391;51.306;22.680;2023-12-29T07:16:24;99301.00;;;5.38
70050;BMP180;57391;51.306;22.680;2023-12-29T07:18:26;99299.60;;;5.40
70050;BMP180;57391;51.306;22.680;2023-12-29T07:20:27;99291.20;;;5.40
70050;BMP180;57391;51.306;22.680;2023-12-29T07:22:30;99298.40;;;5.46
70050;BMP180;57391;51.306;22.680;2023-12-29T07:24:32;99294.60;;;5.50
70050;BMP180;57391;51.306;22.680;2023-12-29T07:26:34;99293.40;;;5.60
70050;BMP180;57391;51.306;22.680;2023-12-29T07:28:36;99296.40;;;5.60
70050;BMP180;57391;51.306;22.680;2023-12-29T07:30:37;99299.20;;;5.62
70050;BMP180;57391;51.306;22.680;2023-12-29T07:32:39;99299.60;;;5.70
70050;BMP180;57391;51.306;22.680;2023-12-29T07:34:41;99307.60;;;5.72
70050;BMP180;57391;51.306;22.680;2023-12-29T07:36:43;99299.00;;;5.80
70050;BMP180;57391;51.306;22.680;2023-12-29T07:38:44;99298.80;;;5.80
70050;BMP180;57391;51.306;22.680;2023-12-29T07:40:46;99307.60;;;5.86
70050;BMP180;57391;51.306;22.680;2023-12-29T07:42:49;99306.40;;;5.90
70050;BMP180;57391;51.306;22.680;2023-12-29T07:44:51;99307.80;;;5.90
70050;BMP180;57391;51.306;22.680;2023-12-29T07:46:53;99305.80;;;5.98
70050;BMP180;57391;51.306;22.680;2023-12-29T07:48:55;99301.00;;;6.00
70050;BMP180;57391;51.306;22.680;2023-12-29T07:51:04;99306.20;;;6.00
70050;BMP180;57391;51.306;22.680;2023-12-29T07:53:06;99306.80;;;6.00
70050;BMP180;57391;51.306;22.680;2023-12-29T07:55:08;99299.40;;;6.06
70050;BMP180;57391;51.306;22.680;2023-12-29T07:57:09;99291.60;;;6.10
70050;BMP180;57391;51.306;22.680;2023-12-29T07:59:11;99294.40;;;6.10
70050;BMP180;57391;51.306;22.680;2023-12-29T08:01:13;99292.60;;;6.10
70050;BMP180;57391;51.306;22.680;2023-12-29T08:03:15;99292.80;;;6.20
70050;BMP180;57391;51.306;22.680;2023-12-29T08:05:16;99293.20;;;6.20
70050;BMP180;57391;51.306;22.680;2023-12-29T08:07:18;99293.40;;;6.20
70050;BMP180;57391;51.306;22.680;2023-12-29T08:09:20;99292.80;;;6.22
70050;BMP180;57391;51.306;22.680;2023-12-29T08:11:21;99294.80;;;6.30
70050;BMP180;57391;51.306;22.680;2023-12-29T08:13:23;99294.80;;;6.30
70050;BMP180;57391;51.306;22.680;2023-12-29T08:15:25;99295.60;;;6.32
70050;BMP180;57391;51.306;22.680;2023-12-29T08:17:27;99296.00;;;6.40
70050;BMP180;57391;51.306;22.680;2023-12-29T08:19:29;99294.60;;;6.40
70050;BMP180;57391;51.306;22.680;2023-12-29T08:21:31;99302.80;;;6.48
70050;BMP180;57391;51.306;22.680;2023-12-29T08:23:33;99302.80;;;6.50
70050;BMP180;57391;51.306;22.680;2023-12-29T08:25:35;99302.80;;;6.52
70050;BMP180;57391;51.306;22.680;2023-12-29T08:27:38;99304.40;;;6.60
70050;BMP180;57391;51.306;22.680;2023-12-29T08:29:40;99297.80;;;6.60
70050;BMP180;57391;51.306;22.680;2023-12-29T08:31:42;99295.60;;;6.70
70050;BMP180;57391;51.306;22.680;2023-12-29T08:33:45;99293.40;;;6.70
70050;BMP180;57391;51.306;22.680;2023-12-29T08:35:46;99300.60;;;6.72
70050;BMP180;57391;51.306;22.680;2023-12-29T08:37:48;99297.60;;;6.80
70050;BMP180;57391;51.306;22.680;2023-12-29T08:39:50;99296.40;;;6.90
70050;BMP180;57391;51.306;22.680;2023-12-29T08:41:52;99298.40;;;7.00
70050;BMP180;57391;51.306;22.680;2023-12-29T08:43:53;99299.00;;;7.10
70050;BMP180;57391;51.306;22.680;2023-12-29T08:45:56;99295.00;;;7.30
70050;BMP180;57391;51.306;22.680;2023-12-29T08:47:58;99302.00;;;7.40
70050;BMP180;57391;51.306;22.680;2023-12-29T08:49:59;99296.60;;;7.50
70050;BMP180;57391;51.306;22.680;2023-12-29T08:52:03;99297.20;;;7.60
70050;BMP180;57391;51.306;22.680;2023-12-29T08:54:05;99304.00;;;7.62
70050;BMP180;57391;51.306;22.680;2023-12-29T08:56:07;99295.60;;;7.70
70050;BMP180;57391;51.306;22.680;2023-12-29T08:58:08;99294.20;;;7.70
70050;BMP180;57391;51.306;22.680;2023-12-29T09:00:11;99286.20;;;7.80
70050;BMP180;57391;51.306;22.680;2023-12-29T09:02:13;99290.40;;;7.80
70050;BMP180;57391;51.306;22.680;2023-12-29T09:04:14;99287.20;;;7.90
70050;BMP180;57391;51.306;22.680;2023-12-29T09:06:16;99283.60;;;7.94
70050;BMP180;57391;51.306;22.680;2023-12-29T09:08:18;99282.60;;;8.00
70050;BMP180;57391;51.306;22.680;2023-12-29T09:10:20;99284.20;;;8.10
70050;BMP180;57391;51.306;22.680;2023-12-29T09:12:23;99276.40;;;8.18
70050;BMP180;57391;51.306;22.680;2023-12-29T09:14:24;99281.20;;;8.20
70050;BMP180;57391;51.306;22.680;2023-12-29T09:16:26;99284.00;;;8.30
70050;BMP180;57391;51.306;22.680;2023-12-29T09:18:28;99287.20;;;8.30
70050;BMP180;57391;51.306;22.680;2023-12-29T09:20:30;99293.80;;;8.40
70050;BMP180;57391;51.306;22.680;2023-12-29T09:22:32;99292.20;;;8.40
70050;BMP180;57391;51.306;22.680;2023-12-29T09:24:34;99293.00;;;8.48
70050;BMP180;57391;51.306;22.680;2023-12-29T09:26:35;99288.80;;;8.50
70050;BMP180;57391;51.306;22.680;2023-12-29T09:28:37;99276.00;;;8.50
70050;BMP180;57391;51.306;22.680;2023-12-29T09:30:39;99280.20;;;8.52
70050;BMP180;57391;51.306;22.680;2023-12-29T09:32:41;99276.80;;;8.60
70050;BMP180;57391;51.306;22.680;2023-12-29T09:34:42;99276.20;;;8.60
70050;BMP180;57391;51.306;22.680;2023-12-29T09:36:44;99270.40;;;8.60
70050;BMP180;57391;51.306;22.680;2023-12-29T09:38:46;99269.40;;;8.60
70050;BMP180;57391;51.306;22.680;2023-12-29T09:40:48;99256.80;;;8.60
70050;BMP180;57391;51.306;22.680;2023-12-29T09:42:51;99256.80;;;8.60
70050;BMP180;57391;51.306;22.680;2023-12-29T09:44:53;99261.80;;;8.60
70050;BMP180;57391;51.306;22.680;2023-12-29T09:47:00;99263.40;;;8.60
70050;BMP180;57391;51.306;22.680;2023-12-29T09:49:03;99258.40;;;8.60
70050;BMP180;57391;51.306;22.680;2023-12-29T09:51:10;99251.60;;;8.60
70050;BMP180;57391;51.306;22.680;2023-12-29T09:53:12;99243.80;;;8.68
70050;BMP180;57391;51.306;22.680;2023-12-29T09:55:15;99248.60;;;8.70
70050;BMP180;57391;51.306;22.680;2023-12-29T09:57:18;99251.20;;;8.70
70050;BMP180;57391;51.306;22.680;2023-12-29T09:59:23;99248.00;;;8.70
70050;BMP180;57391;51.306;22.680;2023-12-29T10:01:27;99242.20;;;8.70
70050;BMP180;57391;51.306;22.680;2023-12-29T10:03:32;99240.80;;;8.70
70050;BMP180;57391;51.306;22.680;2023-12-29T10:05:35;99242.40;;;8.78
70050;BMP180;57391;51.306;22.680;2023-12-29T10:07:39;99248.40;;;8.80
70050;BMP180;57391;51.306;22.680;2023-12-29T10:09:45;99243.40;;;8.80
70050;BMP180;57391;51.306;22.680;2023-12-29T10:11:48;99240.60;;;8.80
70050;BMP180;57391;51.306;22.680;2023-12-29T10:13:54;99243.40;;;8.80
70050;BMP180;57391;51.306;22.680;2023-12-29T10:16:08;99248.00;;;8.80
70050;BMP180;57391;51.306;22.680;2023-12-29T10:18:45;99254.80;;;8.80
70050;BMP180;57391;51.306;22.680;2023-12-29T10:21:02;99255.20;;;8.78
70050;BMP180;57391;51.306;22.680;2023-12-29T10:23:12;99255.40;;;8.76
70050;BMP180;57391;51.306;22.680;2023-12-29T10:25:18;99251.80;;;8.70
70050;BMP180;57391;51.306;22.680;2023-12-29T10:27:20;99256.60;;;8.70
70050;BMP180;57391;51.306;22.680;2023-12-29T10:29:22;99253.00;;;8.70
70050;BMP180;57391;51.306;22.680;2023-12-29T10:31:25;99260.80;;;8.70
70050;BMP180;57391;51.306;22.680;2023-12-29T10:33:27;99250.60;;;8.70
70050;BMP180;57391;51.306;22.680;2023-12-29T10:35:32;99244.20;;;8.66
70050;BMP180;57391;51.306;22.680;2023-12-29T10:37:37;99242.00;;;8.62
70050;BMP180;57391;51.306;22.680;2023-12-29T10:39:55;99235.60;;;8.60
70050;BMP180;57391;51.306;22.680;2023-12-29T10:42:06;99235.00;;;8.70
70050;BMP180;57391;51.306;22.680;2023-12-29T10:44:09;99228.00;;;8.70
70050;BMP180;57391;51.306;22.680;2023-12-29T10:46:11;99219.40;;;8.70
70050;BMP180;57391;51.306;22.680;2023-12-29T10:48:24;99216.40;;;8.70
70050;BMP180;57391;51.306;22.680;2023-12-29T10:50:44;99209.40;;;8.80
70050;BMP180;57391;51.306;22.680;2023-12-29T10:52:48;99214.80;;;8.80
70050;BMP180;57391;51.306;22.680;2023-12-29T10:55:05;99214.80;;;8.80
70050;BMP180;57391;51.306;22.680;2023-12-29T10:57:11;99209.60;;;8.80
70050;BMP180;57391;51.306;22.680;2023-12-29T10:59:13;99204.40;;;8.90
70050;BMP180;57391;51.306;22.680;2023-12-29T11:01:16;99196.80;;;8.90
70050;BMP180;57391;51.306;22.680;2023-12-29T11:03:21;99198.00;;;8.90
70050;BMP180;57391;51.306;22.680;2023-12-29T11:05:27;99199.20;;;8.90
70050;BMP180;57391;51.306;22.680;2023-12-29T11:07:46;99203.40;;;8.98
70050;BMP180;57391;51.306;22.680;2023-12-29T11:09:51;99203.00;;;9.00
70050;BMP180;57391;51.306;22.680;2023-12-29T11:11:53;99193.00;;;9.00
70050;BMP180;57391;51.306;22.680;2023-12-29T11:13:55;99189.00;;;9.10
70050;BMP180;57391;51.306;22.680;2023-12-29T11:15:58;99193.20;;;9.10
70050;BMP180;57391;51.306;22.680;2023-12-29T11:18:01;99187.80;;;9.20
70050;BMP180;57391;51.306;22.680;2023-12-29T11:20:06;99182.00;;;9.20
70050;BMP180;57391;51.306;22.680;2023-12-29T11:22:08;99192.00;;;9.30
70050;BMP180;57391;51.306;22.680;2023-12-29T11:24:11;99188.20;;;9.30
70050;BMP180;57391;51.306;22.680;2023-12-29T11:26:13;99190.00;;;9.38
70050;BMP180;57391;51.306;22.680;2023-12-29T11:28:16;99187.00;;;9.40
70050;BMP180;57391;51.306;22.680;2023-12-29T11:30:19;99191.00;;;9.40
70050;BMP180;57391;51.306;22.680;2023-12-29T11:32:43;99189.20;;;9.50
70050;BMP180;57391;51.306;22.680;2023-12-29T11:34:53;99178.80;;;9.50
70050;BMP180;57391;51.306;22.680;2023-12-29T11:37:15;99177.40;;;9.50
70050;BMP180;57391;51.306;22.680;2023-12-29T11:39:35;99177.80;;;9.60
70050;BMP180;57391;51.306;22.680;2023-12-29T11:42:00;99175.40;;;9.60
70050;BMP180;57391;51.306;22.680;2023-12-29T11:44:03;99176.60;;;9.70
70050;BMP180;57391;51.306;22.680;2023-12-29T11:46:05;99174.00;;;9.72
70050;BMP180;57391;51.306;22.680;2023-12-29T11:48:07;99180.00;;;9.74
70050;BMP180;57391;51.306;22.680;2023-12-29T11:50:09;99174.00;;;9.80
70050;BMP180;57391;51.306;22.680;2023-12-29T11:52:11;99169.40;;;9.80
70050;BMP180;57391;51.306;22.680;2023-12-29T11:54:26;99169.20;;;9.80